Bretagne — FNBR — position and weather

sailwx.info

Track history (hours):
 
Tides and Currents Weather Stations Pressure Air Temp Water Temp Dewpoint Dewpoint Depression Visibility Wind Speed Wind Dir Waves Ship Positions

Bretagne

Operator: Brittany Ferries

Last reported at 2016-Sep-29 08:31 UTC. Time now 2016-Sep-29 11:51 UTC.
Position N 48°39' W 002°02'.

Length 151 m; beam 27 m.

Type: Ship. MMSI: 227286000.

Date/timePositionNaut miles runAvg speedWind from/ knotsBaromVisibWave heightAir tempDewpointWater temp
2016-Sep-29 08:31N 48°39' W 002°02'0 0.3
2016-Sep-29 07:33N 48°38' W 002°02'7010.0
2016-Sep-29 00:33N 49°49' W 001°58'4414.8
2016-Sep-28 21:33N 50°26' W 001°19'2411.8
2016-Sep-28 19:33N 50°48' W 001°07'1 0.4
2016-Sep-28 16:30N 50°49' W 001°06'0 0.0
2016-Sep-28 15:30N 50°49' W 001°06'0 0.0
2016-Sep-28 12:30N 50°49' W 001°06'0 0.0
2016-Sep-28 08:30N 50°49' W 001°06'36 7.2
2016-Sep-28 03:33N 50°16' W 001°30'1211.7
2016-Sep-28 02:33N 50°06' W 001°39'1313.1
2016-Sep-28 01:33N 49°56' W 001°51'2512.3
2016-Sep-27 23:33N 49°34' W 002°09'4611.3
2016-Sep-27 19:30N 48°48' W 002°13'118 5.2
2016-Sep-26 20:34N 50°38' W 001°06'1110.5
2016-Sep-26 19:33N 50°48' W 001°07'1 0.0
2016-Sep-25 17:30N 50°49' W 001°06'4 4.2
2016-Sep-25 16:34N 50°45' W 001°05'1515.0
2016-Sep-25 15:32N 50°30' W 001°14'53 3.5
2016-Sep-25 00:23N 49°46' W 002°01'4214.1
2016-Sep-24 21:26N 50°21' W 001°25'2714.4
2016-Sep-24 19:34N 50°45' W 001°05'4 3.7
2016-Sep-24 18:31N 50°49' W 001°06'0 0.0
2016-Sep-24 17:31N 50°49' W 001°06'3 3.1
2016-Sep-24 16:33N 50°46' W 001°05'3115.6
2016-Sep-24 14:33N 50°18' W 001°27'8617.1
2016-Sep-24 09:32N 48°54' W 001°59'24 4.0
2016-Sep-24 03:33N 49°13' W 002°22'1413.5
2016-Sep-24 02:33N 49°26' W 002°15'1312.4
2016-Sep-24 01:33N 49°37' W 002°08'7913.1
2016-Sep-23 19:34N 50°45' W 001°06'4 1.9
2016-Sep-23 17:33N 50°49' W 001°06'7 6.8
2016-Sep-23 16:33N 50°42' W 001°03'12017.0
2016-Sep-23 09:33N 48°49' W 002°01'113 8.7
2016-Sep-22 20:33N 50°35' W 001°02'51 2.6
2016-Sep-22 00:33N 49°54' W 001°50'2712.7
2016-Sep-21 22:25N 50°17' W 001°28'3211.3
2016-Sep-21 19:34N 50°46' W 001°05'3 0.8
2016-Sep-21 16:32N 50°49' W 001°06'0 0.0
2016-Sep-21 09:32N 50°49' W 001°06'0 0.0
2016-Sep-21 08:32N 50°49' W 001°06'11 3.5
2016-Sep-21 05:33N 50°39' W 000°59'11 0.3
2016-Sep-19 19:33N 50°48' W 001°07'1 0.8
2016-Sep-19 18:32N 50°49' W 001°06'7 3.7
2016-Sep-19 16:33N 50°42' W 001°03'12017.2
2016-Sep-19 09:33N 48°52' W 002°17'  
Track history (hours):
 
Tides and Currents Weather Stations Pressure Air Temp Water Temp Dewpoint Dewpoint Depression Visibility Wind Speed Wind Dir Waves Ship Positions

Bretagne

Operator: Brittany Ferries

Last reported at 2016-Sep-29 08:31 UTC. Time now 2016-Sep-29 11:51 UTC.
Position N 48°39' W 002°02'.

Length 151 m; beam 27 m.

Type: Ship. MMSI: 227286000.

Date/timePositionNaut miles runAvg speedWind from/ knotsBaromVisibWave heightAir tempDewpointWater temp
2016-Sep-29 08:31N 48°39' W 002°02'0 0.3
2016-Sep-29 07:33N 48°38' W 002°02'7010.0
2016-Sep-29 00:33N 49°49' W 001°58'4414.8
2016-Sep-28 21:33N 50°26' W 001°19'2411.8
2016-Sep-28 19:33N 50°48' W 001°07'1 0.4
2016-Sep-28 16:30N 50°49' W 001°06'0 0.0
2016-Sep-28 15:30N 50°49' W 001°06'0 0.0
2016-Sep-28 12:30N 50°49' W 001°06'0 0.0
2016-Sep-28 08:30N 50°49' W 001°06'36 7.2
2016-Sep-28 03:33N 50°16' W 001°30'1211.7
2016-Sep-28 02:33N 50°06' W 001°39'1313.1
2016-Sep-28 01:33N 49°56' W 001°51'2512.3
2016-Sep-27 23:33N 49°34' W 002°09'4611.3
2016-Sep-27 19:30N 48°48' W 002°13'118 5.2
2016-Sep-26 20:34N 50°38' W 001°06'1110.5
2016-Sep-26 19:33N 50°48' W 001°07'1 0.0
2016-Sep-25 17:30N 50°49' W 001°06'4 4.2
2016-Sep-25 16:34N 50°45' W 001°05'1515.0
2016-Sep-25 15:32N 50°30' W 001°14'53 3.5
2016-Sep-25 00:23N 49°46' W 002°01'4214.1
2016-Sep-24 21:26N 50°21' W 001°25'2714.4
2016-Sep-24 19:34N 50°45' W 001°05'4 3.7
2016-Sep-24 18:31N 50°49' W 001°06'0 0.0
2016-Sep-24 17:31N 50°49' W 001°06'3 3.1
2016-Sep-24 16:33N 50°46' W 001°05'3115.6
2016-Sep-24 14:33N 50°18' W 001°27'8617.1
2016-Sep-24 09:32N 48°54' W 001°59'24 4.0
2016-Sep-24 03:33N 49°13' W 002°22'1413.5
2016-Sep-24 02:33N 49°26' W 002°15'1312.4
2016-Sep-24 01:33N 49°37' W 002°08'7913.1
2016-Sep-23 19:34N 50°45' W 001°06'4 1.9
2016-Sep-23 17:33N 50°49' W 001°06'7 6.8
2016-Sep-23 16:33N 50°42' W 001°03'12017.0
2016-Sep-23 09:33N 48°49' W 002°01'113 8.7
2016-Sep-22 20:33N 50°35' W 001°02'51 2.6
2016-Sep-22 00:33N 49°54' W 001°50'2712.7
2016-Sep-21 22:25N 50°17' W 001°28'3211.3
2016-Sep-21 19:34N 50°46' W 001°05'3 0.8
2016-Sep-21 16:32N 50°49' W 001°06'0 0.0
2016-Sep-21 09:32N 50°49' W 001°06'0 0.0
2016-Sep-21 08:32N 50°49' W 001°06'11 3.5
2016-Sep-21 05:33N 50°39' W 000°59'11 0.3
2016-Sep-19 19:33N 50°48' W 001°07'1 0.8
2016-Sep-19 18:32N 50°49' W 001°06'7 3.7
2016-Sep-19 16:33N 50°42' W 001°03'12017.2
2016-Sep-19 09:33N 48°52' W 002°17'  

Dump ship's entire track history